Time;durP1;ratioP1;P1;durP2;ratioP2;P2;SDS_P1;SDS_P2;PMS_P1;PMS_P2;Temp;Humidity;BMP_temperature;BMP_pressure;BME280_temperature;BME280_humidity;BME280_pressure;Samples;Min_cycle;Max_cycle;Signal;HPM_P1;HPM_P2
2023/01/25 00:02:15;;;;;;;39.67;28.67;;;;;;;-0.07;100.00;160556.44;5013671;28;20563;-62
2023/01/25 00:04:40;;;;;;;33.72;26.33;;;;;;;-0.18;100.00;160528.28;5011994;28;20049;-63
2023/01/25 00:07:05;;;;;;;33.50;26.75;;;;;;;-0.22;100.00;160516.22;5011983;28;20138;-63
2023/01/25 00:09:31;;;;;;;36.10;29.85;;;;;;;-0.15;100.00;160534.97;5013186;28;20938;-63
2023/01/25 00:11:57;;;;;;;33.42;25.77;;;;;;;-0.13;100.00;160540.34;5011764;28;20110;-63
2023/01/25 00:14:23;;;;;;;34.33;27.27;;;;;;;-0.18;100.00;160526.91;5013398;28;20022;-63
2023/01/25 00:16:49;;;;;;;36.25;28.13;;;;;;;-0.25;100.00;160508.16;5011946;28;20092;-63
2023/01/25 00:19:14;;;;;;;35.95;27.38;;;;;;;-0.28;100.00;160500.16;5012873;28;20025;-63
2023/01/25 00:21:40;;;;;;;32.20;25.23;;;;;;;-0.28;100.00;160500.16;5006539;28;20501;-63
2023/01/25 00:24:06;;;;;;;35.22;26.70;;;;;;;-0.32;100.00;160492.09;5013229;28;20022;-63
2023/01/25 00:26:34;;;;;;;36.13;27.25;;;;;;;-0.36;100.00;160481.41;5011184;28;20559;-63
2023/01/25 00:29:00;;;;;;;32.90;26.27;;;;;;;-0.37;100.00;160478.72;5013439;28;20033;-63
2023/01/25 00:31:34;;;;;;;35.10;28.27;;;;;;;-0.32;100.00;160490.78;5011390;28;20034;-62
2023/01/25 00:34:19;;;;;;;35.90;28.77;;;;;;;-0.33;100.00;160488.09;5012788;28;20061;-63
2023/01/25 00:36:44;;;;;;;39.67;29.33;;;;;;;-0.38;100.00;160476.03;5011527;28;20095;-63
2023/01/25 00:39:12;;;;;;;34.00;28.15;;;;;;;-0.42;100.00;160465.34;5013155;28;20374;-63
2023/01/25 00:41:38;;;;;;;34.13;28.08;;;;;;;-0.45;100.00;160457.28;5011125;28;20192;-63
2023/01/25 00:44:03;;;;;;;37.83;30.00;;;;;;;-0.45;100.00;160457.28;5012649;28;20057;-63
2023/01/25 00:46:28;;;;;;;36.67;28.17;;;;;;;-0.48;100.00;160449.22;5010987;28;20481;-63
2023/01/25 00:48:54;;;;;;;36.20;27.35;;;;;;;-0.47;100.00;160451.91;5012391;28;20037;-63
2023/01/25 00:51:20;;;;;;;34.15;28.75;;;;;;;-0.45;100.00;160457.28;5010996;28;20056;-62
2023/01/25 00:53:45;;;;;;;42.75;29.08;;;;;;;-0.42;100.00;160465.34;5012652;28;20029;-62
2023/01/25 00:56:11;;;;;;;37.97;29.30;;;;;;;-0.43;100.00;160462.66;5010825;28;20078;-62
2023/01/25 00:58:36;;;;;;;36.17;28.52;;;;;;;-0.47;100.00;160451.91;5012215;28;20029;-62
2023/01/25 01:01:02;;;;;;;37.17;27.27;;;;;;;-0.35;100.00;160482.72;5011118;28;20049;-62
2023/01/25 01:03:27;;;;;;;35.47;27.77;;;;;;;-0.36;100.00;160481.41;5011790;28;20042;-62
2023/01/25 01:06:04;;;;;;;37.17;28.48;;;;;;;-0.37;100.00;160478.72;5010877;28;20038;-62
2023/01/25 01:08:32;;;;;;;40.78;31.05;;;;;;;-0.49;100.00;160446.56;5011920;28;20032;-62
2023/01/25 01:11:03;;;;;;;38.03;27.92;;;;;;;-0.58;100.00;160423.78;5010702;28;20042;-62
2023/01/25 01:13:28;;;;;;;40.05;30.83;;;;;;;-0.61;100.00;160415.75;5011885;28;20405;-63
2023/01/25 01:15:54;;;;;;;42.42;33.58;;;;;;;-0.56;100.00;160427.81;5010737;28;20034;-63
2023/01/25 01:18:20;;;;;;;37.13;29.77;;;;;;;-0.53;100.00;160435.84;5011602;28;20040;-63
2023/01/25 01:20:51;;;;;;;36.80;30.25;;;;;;;-0.50;100.00;160443.91;5010821;28;20034;-62
2023/01/25 01:23:17;;;;;;;45.97;33.30;;;;;;;-0.52;100.00;160438.53;5011850;28;20026;-63
2023/01/25 01:25:43;;;;;;;39.10;31.30;;;;;;;-0.44;100.00;160459.97;5010094;28;20092;-63
2023/01/25 01:28:08;;;;;;;33.90;28.30;;;;;;;-0.43;100.00;160462.66;5012051;28;20036;-63
2023/01/25 01:30:35;;;;;;;37.63;28.80;;;;;;;-0.45;100.00;160457.28;5010228;28;20037;-63
2023/01/25 01:33:00;;;;;;;38.53;32.10;;;;;;;-0.42;100.00;160465.34;5011948;28;20067;-64
2023/01/25 01:35:27;;;;;;;39.78;30.13;;;;;;;-0.38;100.00;160476.03;5011605;28;20033;-64
2023/01/25 01:37:53;;;;;;;39.97;30.67;;;;;;;-0.41;100.00;160467.97;5010389;28;20472;-64
2023/01/25 01:40:18;;;;;;;41.53;33.65;;;;;;;-0.44;100.00;160459.97;5011370;28;20056;-64
2023/01/25 01:43:00;;;;;;;37.22;29.73;;;;;;;-0.45;100.00;160455.97;5010435;28;20385;-64
2023/01/25 01:45:47;;;;;;;41.22;30.65;;;;;;;-0.56;100.00;160427.81;5011267;28;20022;-64
2023/01/25 01:48:39;;;;;;;39.78;31.23;;;;;;;-0.66;100.00;160403.69;5009713;28;20164;-64
2023/01/25 01:51:15;;;;;;;41.00;31.17;;;;;;;-0.61;100.00;160414.41;4991016;28;20369;-64
2023/01/25 01:53:45;;;;;;;42.53;29.85;;;;;;;-0.64;100.00;160407.72;5011902;28;20021;-64
2023/01/25 01:56:15;;;;;;;42.33;35.75;;;;;;;-0.68;100.00;160398.34;5009932;28;20018;-64
2023/01/25 01:58:43;;;;;;;42.58;32.70;;;;;;;-0.84;100.00;160355.47;5011599;28;20041;-64
2023/01/25 02:01:08;;;;;;;42.63;31.13;;;;;;;-0.85;100.00;160354.16;5009859;28;20029;-64
2023/01/25 02:03:34;;;;;;;40.95;31.58;;;;;;;-0.80;100.00;160366.22;5010794;28;20030;-64
2023/01/25 02:06:13;;;;;;;43.45;34.50;;;;;;;-0.74;100.00;160380.91;5009529;28;20113;-64
2023/01/25 02:08:39;;;;;;;40.08;32.17;;;;;;;-0.66;100.00;160403.69;5011090;28;20060;-65
2023/01/25 02:11:06;;;;;;;37.03;29.00;;;;;;;-0.60;100.00;160418.44;5010142;28;20362;-65
2023/01/25 02:13:34;;;;;;;41.70;34.03;;;;;;;-0.64;100.00;160407.72;5011132;28;20022;-65
2023/01/25 02:15:59;;;;;;;46.72;35.30;;;;;;;-0.61;100.00;160414.41;5009593;28;20474;-64
2023/01/25 02:18:25;;;;;;;41.92;32.25;;;;;;;-0.58;100.00;160422.47;5011208;28;20022;-64
2023/01/25 02:20:53;;;;;;;40.28;31.17;;;;;;;-0.69;100.00;160395.66;5011156;28;20022;-64
2023/01/25 02:23:35;;;;;;;43.83;31.53;;;;;;;-0.68;100.00;160397.00;5024205;28;20045;-64
2023/01/25 02:26:04;;;;;;;43.97;31.95;;;;;;;-0.61;100.00;160414.41;5029525;28;20464;-64
2023/01/25 02:28:38;;;;;;;43.67;32.85;;;;;;;-0.50;100.00;160443.91;5030002;28;20025;-64
2023/01/25 02:31:04;;;;;;;43.55;33.50;;;;;;;-0.47;100.00;160451.91;5029024;28;20030;-64
2023/01/25 02:33:29;;;;;;;40.20;31.30;;;;;;;-0.58;100.00;160422.47;5030482;28;20021;-65
2023/01/25 02:36:13;;;;;;;43.72;33.80;;;;;;;-0.61;100.00;160414.41;5029549;28;20068;-63
2023/01/25 02:38:51;;;;;;;40.10;31.55;;;;;;;-0.70;100.00;160392.97;5030499;28;20063;-63
2023/01/25 02:41:43;;;;;;;43.33;33.42;;;;;;;-0.50;100.00;160443.91;5029057;28;20041;-64
2023/01/25 02:44:13;;;;;;;41.17;32.40;;;;;;;-0.48;100.00;160449.22;5029566;28;20063;-64
2023/01/25 02:46:41;;;;;;;46.03;32.75;;;;;;;-0.57;100.00;160425.13;5028822;28;20048;-64
2023/01/25 02:49:08;;;;;;;41.28;32.38;;;;;;;-0.56;100.00;160427.81;5030629;28;20036;-64
2023/01/25 02:51:37;;;;;;;48.10;37.55;;;;;;;-0.59;100.00;160419.78;5028973;28;20045;-64
2023/01/25 02:54:04;;;;;;;40.60;32.47;;;;;;;-0.57;100.00;160425.13;5030286;28;20025;-64
2023/01/25 02:56:30;;;;;;;44.28;33.03;;;;;;;-0.56;100.00;160427.81;5029193;28;20037;-64
2023/01/25 02:58:55;;;;;;;42.25;32.78;;;;;;;-0.57;100.00;160426.47;5030468;28;20159;-64
2023/01/25 03:01:21;;;;;;;43.83;32.33;;;;;;;-0.62;100.00;160411.72;5028393;28;20056;-64
2023/01/25 03:03:46;;;;;;;46.38;33.95;;;;;;;-0.70;100.00;160392.97;5030349;28;20041;-64
2023/01/25 03:06:12;;;;;;;45.80;35.45;;;;;;;-0.63;100.00;160409.06;5028931;28;20495;-64
2023/01/25 03:08:37;;;;;;;45.25;35.03;;;;;;;-0.61;100.00;160414.41;5029939;28;20087;-64
2023/01/25 03:11:04;;;;;;;47.25;34.33;;;;;;;-0.65;100.00;160405.03;5029117;28;20025;-63
2023/01/25 03:13:31;;;;;;;45.15;35.03;;;;;;;-0.61;100.00;160414.41;5030020;28;20029;-63
2023/01/25 03:16:01;;;;;;;50.30;36.25;;;;;;;-0.66;100.00;160402.34;5028438;28;20100;-63
2023/01/25 03:18:27;;;;;;;47.05;34.78;;;;;;;-0.80;100.00;160366.22;5030159;28;20401;-62
2023/01/25 03:20:53;;;;;;;46.05;35.03;;;;;;;-0.76;100.00;160375.56;5030630;28;20029;-64
2023/01/25 03:23:18;;;;;;;46.53;34.40;;;;;;;-0.80;100.00;160366.22;5028080;28;20057;-64
2023/01/25 03:25:43;;;;;;;47.05;35.55;;;;;;;-0.80;100.00;160366.22;5030134;28;20021;-63
2023/01/25 03:28:09;;;;;;;50.50;36.15;;;;;;;-0.76;100.00;160376.91;5028804;28;20080;-64
2023/01/25 03:30:34;;;;;;;51.47;37.90;;;;;;;-0.82;100.00;160362.16;5028145;28;20034;-63
2023/01/25 03:33:00;;;;;;;49.17;36.22;;;;;;;-0.80;100.00;160366.22;5030646;28;20026;-63
2023/01/25 03:35:25;;;;;;;49.95;37.38;;;;;;;-0.90;100.00;160340.75;5028640;28;20037;-63
2023/01/25 03:37:50;;;;;;;42.85;33.15;;;;;;;-0.90;100.00;160339.41;5030096;28;20052;-64
2023/01/25 03:40:16;;;;;;;49.22;36.75;;;;;;;-0.98;100.00;160320.66;5029462;28;20024;-64
2023/01/25 03:42:41;;;;;;;52.63;40.58;;;;;;;-1.01;100.00;160312.66;5033609;28;20024;-64
2023/01/25 03:45:06;;;;;;;50.63;36.55;;;;;;;-1.01;100.00;160312.66;5031568;28;20075;-63
2023/01/25 03:47:32;;;;;;;51.00;39.05;;;;;;;-0.99;100.00;160317.97;5033501;28;20056;-64
2023/01/25 03:49:57;;;;;;;47.50;36.00;;;;;;;-1.12;100.00;160284.47;5033628;28;20037;-63
2023/01/25 03:52:25;;;;;;;52.50;39.95;;;;;;;-1.16;100.00;160272.47;5031644;28;20042;-63
2023/01/25 03:54:50;;;;;;;49.35;35.67;;;;;;;-1.13;100.00;160280.47;5033444;28;20027;-64
2023/01/25 03:57:16;;;;;;;47.08;36.22;;;;;;;-1.08;100.00;160293.84;5031505;28;20042;-65
2023/01/25 03:59:41;;;;;;;53.83;37.80;;;;;;;-1.12;100.00;160283.16;5033160;28;20029;-63
2023/01/25 04:02:06;;;;;;;54.70;40.65;;;;;;;-1.04;100.00;160304.59;5032026;28;20512;-63
2023/01/25 04:04:32;;;;;;;56.42;39.70;;;;;;;-1.04;100.00;160304.59;5032850;28;20482;-63
2023/01/25 04:06:57;;;;;;;56.67;41.38;;;;;;;-1.00;100.00;160313.97;5031258;28;20191;-63
2023/01/25 04:09:22;;;;;;;46.45;36.15;;;;;;;-0.98;100.00;160319.34;5032926;28;20423;-63
2023/01/25 04:11:49;;;;;;;50.35;37.30;;;;;;;-0.92;100.00;160334.03;5031475;28;20065;-63
2023/01/25 04:14:15;;;;;;;53.28;38.28;;;;;;;-0.90;100.00;160339.41;5033235;28;20029;-63
2023/01/25 04:16:43;;;;;;;51.70;37.65;;;;;;;-0.87;100.00;160347.47;5031379;28;20412;-64
2023/01/25 04:19:08;;;;;;;41.08;32.95;;;;;;;-0.83;100.00;160358.16;5032968;28;20424;-64
2023/01/25 04:21:34;;;;;;;53.08;38.35;;;;;;;-0.93;100.00;160331.41;5031288;28;20045;-64
2023/01/25 04:23:59;;;;;;;51.97;39.25;;;;;;;-0.98;100.00;160320.66;5032603;28;20500;-64
2023/01/25 04:26:24;;;;;;;51.78;38.42;;;;;;;-1.03;100.00;160307.28;5030966;28;20064;-64
2023/01/25 04:28:50;;;;;;;55.10;41.97;;;;;;;-1.02;100.00;160309.97;5032908;28;20021;-64
2023/01/25 04:31:15;;;;;;;58.35;42.63;;;;;;;-1.08;100.00;160293.84;5030793;28;20069;-63
2023/01/25 04:33:40;;;;;;;50.78;37.08;;;;;;;-1.15;100.00;160275.09;5032807;28;20026;-64
2023/01/25 04:36:06;;;;;;;48.97;36.42;;;;;;;-1.20;100.00;160261.75;5031438;28;20041;-64
2023/01/25 04:38:32;;;;;;;52.25;36.58;;;;;;;-1.24;100.00;160251.03;5032087;28;20963;-63
2023/01/25 04:40:57;;;;;;;48.90;38.67;;;;;;;-1.25;100.00;160248.38;5030996;28;20059;-63
2023/01/25 04:43:23;;;;;;;46.38;35.97;;;;;;;-1.34;100.00;160226.94;5032512;28;20033;-63
2023/01/25 04:45:49;;;;;;;54.67;38.95;;;;;;;-1.25;100.00;160248.38;5030520;28;20045;-63
2023/01/25 04:48:14;;;;;;;52.60;38.65;;;;;;;-1.29;100.00;160240.31;5032171;28;20029;-63
2023/01/25 04:50:41;;;;;;;50.85;36.83;;;;;;;-1.39;100.00;160213.56;5030814;28;20044;-63
2023/01/25 04:53:08;;;;;;;53.55;37.38;;;;;;;-1.37;100.00;160218.88;5032169;28;20108;-63
2023/01/25 04:55:34;;;;;;;52.90;37.20;;;;;;;-1.38;100.00;160216.25;5030501;28;20037;-63
2023/01/25 04:58:00;;;;;;;51.95;36.42;;;;;;;-1.33;100.00;160228.25;5032226;28;20026;-63
2023/01/25 05:00:26;;;;;;;50.13;38.40;;;;;;;-1.22;100.00;160257.72;5030318;28;20057;-63
2023/01/25 05:02:52;;;;;;;49.08;36.15;;;;;;;-1.14;100.00;160279.16;5032260;28;20440;-63
2023/01/25 05:05:18;;;;;;;49.15;34.90;;;;;;;-1.23;100.00;160253.72;5030373;28;20051;-63
2023/01/25 05:07:43;;;;;;;51.45;35.45;;;;;;;-1.19;100.00;160264.41;5031754;28;20026;-63
2023/01/25 05:10:09;;;;;;;48.28;36.75;;;;;;;-1.15;100.00;160276.47;5030471;28;20021;-65
2023/01/25 05:12:35;;;;;;;50.40;34.97;;;;;;;-1.16;100.00;160272.47;5031793;28;20033;-65
2023/01/25 05:15:00;;;;;;;46.60;34.45;;;;;;;-1.22;100.00;160256.38;5030121;28;20079;-63
2023/01/25 05:17:25;;;;;;;50.47;35.20;;;;;;;-1.16;100.00;160272.47;5031619;28;20017;-65
2023/01/25 05:19:51;;;;;;;48.40;35.72;;;;;;;-1.12;100.00;160284.47;5031881;28;20029;-65
2023/01/25 05:22:19;;;;;;;43.38;32.60;;;;;;;-1.05;100.00;160301.91;5029836;28;20041;-65
2023/01/25 05:24:45;;;;;;;50.75;36.92;;;;;;;-1.08;100.00;160293.84;5032088;28;20029;-65
2023/01/25 05:27:12;;;;;;;51.63;36.15;;;;;;;-1.14;100.00;160277.78;5030156;28;20049;-65
2023/01/25 05:29:39;;;;;;;49.00;34.55;;;;;;;-1.32;100.00;160232.31;5031526;28;20219;-65
2023/01/25 05:32:17;;;;;;;47.13;36.13;;;;;;;-1.46;100.00;160194.81;5030067;28;20493;-64
2023/01/25 05:34:43;;;;;;;45.65;35.28;;;;;;;-1.35;100.00;160222.94;5031815;28;20543;-64
2023/01/25 05:37:10;;;;;;;46.38;34.67;;;;;;;-1.29;100.00;160240.31;5029592;28;20041;-64
2023/01/25 05:39:35;;;;;;;50.47;36.13;;;;;;;-1.21;100.00;160259.06;5031635;28;20028;-64
2023/01/25 05:42:01;;;;;;;47.20;33.90;;;;;;;-1.20;100.00;160261.75;5030063;28;20045;-65
2023/01/25 05:44:26;;;;;;;47.15;34.22;;;;;;;-1.21;100.00;160259.06;5030796;28;20075;-63
2023/01/25 05:46:51;;;;;;;48.60;34.83;;;;;;;-1.23;100.00;160253.72;5029898;28;20153;-63
2023/01/25 05:49:17;;;;;;;50.72;35.00;;;;;;;-1.38;100.00;160214.88;5031154;28;20079;-64
2023/01/25 05:51:44;;;;;;;51.83;38.22;;;;;;;-1.41;100.00;160208.19;5029316;28;20419;-63
2023/01/25 05:54:16;;;;;;;47.97;34.92;;;;;;;-1.29;100.00;160240.31;5031647;28;20044;-63
2023/01/25 05:56:42;;;;;;;51.85;37.22;;;;;;;-1.25;100.00;160248.38;5030005;28;20038;-63
2023/01/25 05:59:09;;;;;;;49.30;35.22;;;;;;;-1.30;100.00;160236.31;5031134;28;20025;-63
2023/01/25 06:01:35;;;;;;;51.97;38.20;;;;;;;-1.33;100.00;160229.63;5029368;28;20515;-63
2023/01/25 06:04:00;;;;;;;49.95;36.17;;;;;;;-1.34;100.00;160226.94;5030172;28;20054;-63
2023/01/25 06:06:25;;;;;;;52.47;41.13;;;;;;;-1.35;100.00;160224.25;5028943;28;20046;-64
2023/01/25 06:08:51;;;;;;;50.85;35.05;;;;;;;-1.25;100.00;160248.38;5031127;28;20372;-63
2023/01/25 06:11:20;;;;;;;47.45;32.90;;;;;;;-1.28;100.00;160243.00;5029293;28;20037;-63
2023/01/25 06:13:46;;;;;;;48.78;35.58;;;;;;;-1.21;100.00;160259.06;5030537;28;20059;-63
2023/01/25 06:16:11;;;;;;;51.25;36.83;;;;;;;-1.17;100.00;160269.78;5029821;28;20065;-63
2023/01/25 06:18:37;;;;;;;46.65;34.38;;;;;;;-1.09;100.00;160291.22;5031175;28;20032;-63
2023/01/25 06:21:03;;;;;;;45.75;35.35;;;;;;;-1.05;100.00;160300.59;5028983;28;20041;-63
2023/01/25 06:23:29;;;;;;;45.83;34.63;;;;;;;-1.04;100.00;160304.59;5025552;28;20033;-64
2023/01/25 06:26:03;;;;;;;48.70;36.50;;;;;;;-1.15;100.00;160276.47;5029258;28;20045;-63
2023/01/25 06:28:30;;;;;;;48.47;33.45;;;;;;;-1.22;100.00;160256.38;5030285;28;20024;-63
2023/01/25 06:30:56;;;;;;;45.25;33.38;;;;;;;-1.17;100.00;160269.78;5029457;28;20405;-63
2023/01/25 06:33:21;;;;;;;44.63;32.13;;;;;;;-1.33;100.00;160229.63;5030460;28;20032;-63
2023/01/25 06:35:46;;;;;;;47.00;34.38;;;;;;;-1.36;100.00;160221.56;5028938;28;20099;-61
2023/01/25 06:38:12;;;;;;;43.45;33.85;;;;;;;-1.25;100.00;160248.38;5030710;28;20029;-62
2023/01/25 06:40:37;;;;;;;48.78;33.63;;;;;;;-1.22;100.00;160256.38;5029394;28;20045;-61
2023/01/25 06:43:10;;;;;;;50.70;33.10;;;;;;;-1.31;100.00;160233.63;5030314;28;20362;-61
2023/01/25 06:45:36;;;;;;;47.55;35.42;;;;;;;-1.33;100.00;160229.63;5029099;28;20428;-61
2023/01/25 06:48:02;;;;;;;47.85;33.58;;;;;;;-1.36;100.00;160221.56;5030752;28;20029;-61
2023/01/25 06:50:28;;;;;;;46.40;34.42;;;;;;;-1.41;100.00;160208.19;5028507;28;20037;-61
2023/01/25 06:52:53;;;;;;;47.85;37.03;;;;;;;-1.45;100.00;160198.81;5030583;28;20091;-61
2023/01/25 06:55:19;;;;;;;48.38;36.10;;;;;;;-1.50;100.00;160184.09;5028888;28;20026;-61
2023/01/25 06:57:44;;;;;;;45.30;34.15;;;;;;;-1.50;100.00;160184.09;5030355;28;20412;-61
2023/01/25 07:00:10;;;;;;;47.75;34.17;;;;;;;-1.51;100.00;160182.78;5029182;28;20075;-61
2023/01/25 07:02:36;;;;;;;47.30;33.20;;;;;;;-1.61;100.00;160155.97;5030592;28;20392;-62
2023/01/25 07:05:01;;;;;;;47.20;33.45;;;;;;;-1.66;100.00;160143.94;5029829;28;20119;-61
2023/01/25 07:07:26;;;;;;;45.03;33.35;;;;;;;-1.58;100.00;160162.66;5028725;28;20497;-61
2023/01/25 07:09:52;;;;;;;49.50;36.28;;;;;;;-1.47;100.00;160193.47;5030503;28;20028;-61
2023/01/25 07:12:19;;;;;;;44.25;33.35;;;;;;;-1.42;100.00;160204.19;5028234;28;20053;-61
2023/01/25 07:14:46;;;;;;;51.75;34.78;;;;;;;-1.40;100.00;160209.50;5032059;28;20024;-62
2023/01/25 07:17:12;;;;;;;46.78;33.10;;;;;;;-1.34;100.00;160226.94;5032565;28;20125;-61
2023/01/25 07:19:37;;;;;;;45.55;32.60;;;;;;;-1.50;100.00;160184.09;5034030;28;20020;-61
2023/01/25 07:22:03;;;;;;;48.70;36.50;;;;;;;-1.48;100.00;160189.47;5032527;28;20493;-61
2023/01/25 07:24:28;;;;;;;49.70;33.97;;;;;;;-1.48;100.00;160189.47;5033716;28;20029;-61
2023/01/25 07:26:54;;;;;;;48.17;36.90;;;;;;;-1.55;100.00;160170.72;5032393;28;20041;-61
2023/01/25 07:29:19;;;;;;;48.53;34.22;;;;;;;-1.49;100.00;160186.78;5033724;28;20029;-61
2023/01/25 07:31:44;;;;;;;46.80;34.53;;;;;;;-1.50;100.00;160184.09;5029523;28;20107;-61
2023/01/25 07:34:12;;;;;;;48.25;33.55;;;;;;;-1.60;100.00;160158.66;5048945;28;20029;-61
2023/01/25 07:36:38;;;;;;;50.88;35.08;;;;;;;-1.72;100.00;160127.88;5052393;28;20123;-61
2023/01/25 07:39:04;;;;;;;48.97;34.75;;;;;;;-1.75;100.00;160119.88;5036138;28;20028;-61
2023/01/25 07:41:29;;;;;;;50.78;35.95;;;;;;;-1.73;100.00;160125.19;5032021;28;20140;-61
2023/01/25 07:43:55;;;;;;;44.40;30.92;;;;;;;-1.67;100.00;160141.25;5033165;28;20021;-61
2023/01/25 07:46:20;;;;;;;52.42;37.17;;;;;;;-1.65;100.00;160145.28;5031926;28;20649;-61
2023/01/25 07:48:51;;;;;;;50.22;35.60;;;;;;;-1.63;100.00;160151.97;5033625;28;20045;-61
2023/01/25 07:51:28;;;;;;;48.97;35.75;;;;;;;-1.71;100.00;160129.25;5031330;28;20496;-61
2023/01/25 07:54:00;;;;;;;48.88;35.15;;;;;;;-1.76;100.00;160117.19;5033609;28;20030;-61
2023/01/25 07:56:30;;;;;;;50.92;33.88;;;;;;;-1.66;100.00;160143.94;5031593;28;20045;-61
2023/01/25 07:58:57;;;;;;;52.25;36.13;;;;;;;-1.82;100.00;160101.09;5033589;28;20028;-61
2023/01/25 08:01:25;;;;;;;54.42;35.78;;;;;;;-1.84;100.00;160095.78;5031768;28;20067;-61
2023/01/25 08:03:51;;;;;;;54.47;36.20;;;;;;;-1.87;100.00;160089.09;5032705;28;20109;-61
2023/01/25 08:06:21;;;;;;;49.40;35.55;;;;;;;-1.89;100.00;160082.34;5031697;28;20045;-61
2023/01/25 08:08:48;;;;;;;54.20;35.97;;;;;;;-1.89;100.00;160082.34;5033262;28;20079;-61
2023/01/25 08:11:20;;;;;;;52.15;36.00;;;;;;;-1.95;100.00;160069.00;5031121;28;20037;-61
2023/01/25 08:13:47;;;;;;;55.47;38.47;;;;;;;-1.96;100.00;160066.31;5032839;28;20029;-61
2023/01/25 08:16:14;;;;;;;53.97;36.70;;;;;;;-1.97;100.00;160063.63;5031483;28;20071;-60
2023/01/25 08:18:39;;;;;;;58.13;36.08;;;;;;;-1.73;100.00;160125.19;5032761;28;20083;-60
2023/01/25 08:21:05;;;;;;;51.78;36.45;;;;;;;-1.62;100.00;160154.66;5031499;28;20041;-60
2023/01/25 08:23:30;;;;;;;48.97;31.73;;;;;;;-1.57;100.00;160165.34;5032820;28;20036;-60
2023/01/25 08:26:03;;;;;;;44.83;35.03;;;;;;;-1.57;100.00;160166.72;5030507;28;20037;-60
2023/01/25 08:28:29;;;;;;;49.67;35.08;;;;;;;-1.58;100.00;160162.66;5032497;28;20025;-60
2023/01/25 08:30:54;;;;;;;52.95;37.67;;;;;;;-1.49;100.00;160186.78;5030043;28;20064;-60
2023/01/25 08:33:20;;;;;;;56.67;37.65;;;;;;;-1.54;100.00;160173.41;5030896;28;20071;-60
2023/01/25 08:35:55;;;;;;;52.47;37.45;;;;;;;-1.58;100.00;160162.66;5030440;28;20505;-60
2023/01/25 08:38:21;;;;;;;49.47;35.55;;;;;;;-1.58;100.00;160162.66;5031856;28;20224;-60
2023/01/25 08:40:46;;;;;;;50.83;34.17;;;;;;;-1.42;100.00;160205.50;5030250;28;20552;-60
2023/01/25 08:43:11;;;;;;;54.92;40.05;;;;;;;-1.46;100.00;160194.81;5032019;28;20365;-60
2023/01/25 08:45:37;;;;;;;52.03;38.10;;;;;;;-1.41;100.00;160206.81;5030742;28;20044;-60
2023/01/25 08:48:02;;;;;;;46.05;35.90;;;;;;;-1.47;100.00;160192.13;5032659;28;20037;-60
2023/01/25 08:50:28;;;;;;;51.03;38.17;;;;;;;-1.52;100.00;160178.72;5030585;28;20040;-59
2023/01/25 08:52:53;;;;;;;53.47;38.70;;;;;;;-1.50;100.00;160184.09;5032532;28;20376;-60
2023/01/25 08:55:18;;;;;;;46.13;34.28;;;;;;;-1.73;100.00;160125.19;5031047;28;20071;-59
2023/01/25 08:57:44;;;;;;;51.83;36.25;;;;;;;-1.73;100.00;160125.19;5031987;28;20029;-60
2023/01/25 09:00:09;;;;;;;49.30;35.38;;;;;;;-1.62;100.00;160154.66;5030986;28;20040;-60
2023/01/25 09:02:35;;;;;;;51.60;38.13;;;;;;;-1.62;100.00;160154.66;5032149;28;20045;-60
2023/01/25 09:05:00;;;;;;;52.78;38.38;;;;;;;-1.58;100.00;160162.66;5028658;28;20415;-56
2023/01/25 09:07:26;;;;;;;52.00;36.78;;;;;;;-1.47;100.00;160192.13;5031984;28;20072;-60
2023/01/25 09:09:51;;;;;;;46.53;32.92;;;;;;;-1.33;100.00;160229.63;5032387;28;20026;-60
2023/01/25 09:12:16;;;;;;;54.03;37.83;;;;;;;-1.32;100.00;160232.31;5029802;28;20041;-60
2023/01/25 09:14:42;;;;;;;51.28;37.13;;;;;;;-1.36;100.00;160221.56;5032256;28;20025;-60
2023/01/25 09:17:08;;;;;;;51.67;35.78;;;;;;;-1.37;100.00;160218.88;5030524;28;20041;-60
2023/01/25 09:19:33;;;;;;;52.22;35.33;;;;;;;-1.30;100.00;160237.63;5031055;28;20030;-60
2023/01/25 09:21:59;;;;;;;53.00;37.28;;;;;;;-1.42;100.00;160204.19;5030466;28;20037;-60
2023/01/25 09:24:24;;;;;;;54.47;38.38;;;;;;;-1.46;100.00;160194.81;5031804;28;20021;-60
2023/01/25 09:26:49;;;;;;;53.70;33.45;;;;;;;-1.39;100.00;160212.19;5029906;28;20092;-60
2023/01/25 09:29:15;;;;;;;54.60;37.67;;;;;;;-1.44;100.00;160200.16;5031476;28;20021;-60
2023/01/25 09:31:42;;;;;;;53.88;36.05;;;;;;;-1.50;100.00;160184.09;5030117;28;20037;-60
2023/01/25 09:34:10;;;;;;;59.40;40.35;;;;;;;-1.52;100.00;160178.72;5031350;28;20051;-61
2023/01/25 09:36:35;;;;;;;58.60;39.67;;;;;;;-1.51;100.00;160181.41;5030065;28;20037;-61
2023/01/25 09:39:01;;;;;;;61.10;39.67;;;;;;;-1.36;100.00;160221.56;5031484;28;20044;-62
2023/01/25 09:41:33;;;;;;;57.70;39.55;;;;;;;-1.50;100.00;160184.09;5029352;28;20108;-61
2023/01/25 09:44:11;;;;;;;53.92;38.28;;;;;;;-1.60;100.00;160158.66;5031554;28;20476;-61
2023/01/25 09:46:48;;;;;;;58.50;40.67;;;;;;;-1.57;100.00;160165.34;5029800;28;20496;-61
2023/01/25 09:49:41;;;;;;;55.67;39.00;;;;;;;-1.34;100.00;160226.94;5030954;28;20035;-61
2023/01/25 09:52:21;;;;;;;60.03;42.30;;;;;;;-1.26;100.00;160245.69;5029890;28;20057;-61
2023/01/25 09:54:47;;;;;;;54.58;38.83;;;;;;;-1.26;100.00;160245.69;5031041;28;20060;-61
2023/01/25 09:57:35;;;;;;;54.95;41.15;;;;;;;-1.16;100.00;160272.47;5029503;28;20374;-61
2023/01/25 10:00:12;;;;;;;55.08;41.03;;;;;;;-1.13;100.00;160280.47;5029843;28;20075;-59
2023/01/25 10:02:50;;;;;;;52.70;35.85;;;;;;;-1.23;100.00;160255.03;5030858;28;20025;-61
2023/01/25 10:05:20;;;;;;;51.22;37.05;;;;;;;-1.24;100.00;160251.03;5029361;28;20084;-61
2023/01/25 10:08:10;;;;;;;58.08;43.53;;;;;;;-1.14;100.00;160277.78;5026072;28;20060;-62
2023/01/25 10:10:41;;;;;;;61.50;39.85;;;;;;;-1.13;100.00;160280.47;5028992;28;20060;-61
2023/01/25 10:13:18;;;;;;;58.05;41.60;;;;;;;-1.23;100.00;160253.72;5031124;28;20025;-61
2023/01/25 10:15:49;;;;;;;49.33;36.88;;;;;;;-1.16;100.00;160272.47;5029673;28;20492;-61
2023/01/25 10:18:26;;;;;;;50.90;36.70;;;;;;;-1.25;100.00;160248.38;5030437;28;20041;-61
2023/01/25 10:20:58;;;;;;;60.17;36.05;;;;;;;-1.26;100.00;160245.69;5029631;28;20042;-61
2023/01/25 10:23:29;;;;;;;73.00;46.30;;;;;;;-1.41;100.00;160208.19;5030685;28;20025;-61
2023/01/25 10:26:24;;;;;;;53.35;38.10;;;;;;;-1.34;100.00;160226.94;5027508;28;20447;-61
2023/01/25 10:29:02;;;;;;;53.40;38.30;;;;;;;-1.31;100.00;160235.00;5017480;28;20124;-61
2023/01/25 10:31:38;;;;;;;51.38;36.83;;;;;;;-1.28;100.00;160243.00;5029255;28;20127;-61
2023/01/25 10:34:17;;;;;;;50.95;36.10;;;;;;;-1.22;100.00;160256.38;5030605;28;20025;-61
2023/01/25 10:36:46;;;;;;;56.00;39.28;;;;;;;-1.37;100.00;160218.88;5029444;28;20057;-61
2023/01/25 10:39:12;;;;;;;57.15;40.67;;;;;;;-1.23;100.00;160253.72;5030437;28;20108;-61
2023/01/25 10:41:41;;;;;;;51.08;37.00;;;;;;;-1.07;100.00;160295.22;5029029;28;20048;-61
2023/01/25 10:44:23;;;;;;;51.75;36.97;;;;;;;-1.04;100.00;160304.59;5030613;28;20037;-61
2023/01/25 10:46:55;;;;;;;54.72;40.03;;;;;;;-1.21;100.00;160260.41;5028780;28;20045;-61
2023/01/25 10:49:32;;;;;;;49.25;35.10;;;;;;;-1.19;100.00;160264.41;5030283;28;20388;-62
2023/01/25 10:52:10;;;;;;;53.40;36.28;;;;;;;-1.02;100.00;160309.97;5033177;28;20500;-62
2023/01/25 10:54:36;;;;;;;53.70;38.70;;;;;;;-0.91;100.00;160336.72;5035780;28;20035;-59
2023/01/25 10:57:04;;;;;;;57.08;37.35;;;;;;;-0.85;100.00;160352.78;5045106;28;20042;-61
2023/01/25 10:59:30;;;;;;;51.40;38.42;;;;;;;-0.89;100.00;160342.09;5034383;28;20072;-61
2023/01/25 11:01:57;;;;;;;57.65;42.90;;;;;;;-0.85;100.00;160352.78;5032663;28;20400;-62
2023/01/25 11:04:31;;;;;;;58.45;36.22;;;;;;;-0.86;100.00;160350.16;5034049;28;20102;-61
2023/01/25 11:06:58;;;;;;;56.33;41.75;;;;;;;-0.90;100.00;160339.41;5032939;28;20044;-61